Terminal Aerodrome Forecast
Issued by NWS

Home | Current Version | Previous Version | Graphics & Text | Print | Product List | Glossary On
Versions: 1 2 3 4 5 6 7 8 9 10 11 12 13
000
FTUS43 KICT 051720
TAFCNU
TAF
KCNU 051720Z 0518/0618 18016G23KT P6SM BKN050
     FM060600 15014KT P6SM VCSH OVC030
     FM060900 15014KT 6SM -SHRA VCTS SCT015 OVC030CB
     FM061300 17017G23KT 5SM -SHRA VCTS OVC010CB=

USA.gov is the U.S. government's official web portal to all federal, state and local government web resources and services.